Time;durP1;ratioP1;P1;durP2;ratioP2;P2;SDS_P1;SDS_P2;PMS_P1;PMS_P2;Temp;Humidity;BMP_temperature;BMP_pressure;BME280_temperature;BME280_humidity;BME280_pressure;Samples;Min_cycle;Max_cycle;Signal;HPM_P1;HPM_P2
2022/04/05 00:02:24;;;;;;;4.97;1.00;;;7.00;99.90;;;;;;5014200;28;20049;-73
2022/04/05 00:04:50;;;;;;;7.50;1.10;;;7.00;99.90;;;;;;5015552;28;20062;-73
2022/04/05 00:07:16;;;;;;;6.43;1.10;;;7.10;99.90;;;;;;5015614;28;20060;-73
2022/04/05 00:09:42;;;;;;;5.55;1.30;;;7.00;99.90;;;;;;5015568;28;20052;-72
2022/04/05 00:12:08;;;;;;;7.13;0.90;;;7.00;99.90;;;;;;5015277;28;20092;-73
2022/04/05 00:14:34;;;;;;;5.55;1.00;;;7.00;99.90;;;;;;5015775;28;20057;-72
2022/04/05 00:17:02;;;;;;;5.13;1.25;;;7.00;99.90;;;;;;5014939;28;20038;-73
2022/04/05 00:19:29;;;;;;;3.63;0.90;;;7.00;99.90;;;;;;5014605;28;20049;-72
2022/04/05 00:21:55;;;;;;;6.93;1.15;;;7.00;99.90;;;;;;5013942;28;20053;-73
2022/04/05 00:24:21;;;;;;;7.15;1.27;;;7.00;99.90;;;;;;5013875;28;20053;-69
2022/04/05 00:26:47;;;;;;;7.82;0.95;;;7.00;99.90;;;;;;5014828;28;20482;-72
2022/04/05 00:29:13;;;;;;;5.95;1.08;;;7.00;99.90;;;;;;5015542;28;20042;-72
2022/04/05 00:31:38;;;;;;;4.35;0.95;;;7.00;99.90;;;;;;5013635;28;20481;-70
2022/04/05 00:34:05;;;;;;;6.25;1.25;;;7.00;99.90;;;;;;5013709;28;20041;-71
2022/04/05 00:36:30;;;;;;;7.78;0.98;;;7.00;99.90;;;;;;5015133;28;20049;-72
2022/04/05 00:38:56;;;;;;;8.77;1.00;;;7.00;99.90;;;;;;4981595;28;20050;-72
2022/04/05 00:41:22;;;;;;;10.68;1.27;;;7.00;99.90;;;;;;5013306;28;20046;-70
2022/04/05 00:43:48;;;;;;;7.30;0.85;;;7.10;99.90;;;;;;5014500;28;20096;-73
2022/04/05 00:46:14;;;;;;;5.85;0.98;;;7.00;99.90;;;;;;5013284;28;20135;-72
2022/04/05 00:48:57;;;;;;;8.50;1.08;;;7.00;99.90;;;;;;4996878;28;20105;-72
2022/04/05 00:51:24;;;;;;;6.60;1.10;;;6.90;99.90;;;;;;4997428;28;20050;-74
2022/04/05 00:54:21;;;;;;;8.90;1.10;;;6.90;99.90;;;;;;5013376;28;20477;-74
2022/04/05 00:56:48;;;;;;;6.93;0.98;;;7.00;99.90;;;;;;5009903;28;20057;-71
2022/04/05 00:59:17;;;;;;;10.20;1.30;;;7.30;99.90;;;;;;5014235;28;20041;-73
2022/04/05 01:01:45;;;;;;;13.25;1.38;;;6.90;99.90;;;;;;5013163;28;20041;-73
2022/04/05 01:04:12;;;;;;;10.25;1.10;;;7.00;99.90;;;;;;5014249;28;20393;-73
2022/04/05 01:06:45;;;;;;;13.65;1.10;;;6.90;99.90;;;;;;5014154;28;20050;-76
2022/04/05 01:09:11;;;;;;;11.93;1.60;;;6.90;99.90;;;;;;5013217;28;20061;-73
2022/04/05 01:11:38;;;;;;;11.48;1.50;;;6.90;99.90;;;;;;5014120;28;20049;-74
2022/04/05 01:14:04;;;;;;;8.10;1.30;;;6.90;99.90;;;;;;5014021;28;20131;-71
2022/04/05 01:16:31;;;;;;;10.43;1.58;;;6.90;99.90;;;;;;4996657;28;20054;-72
2022/04/05 01:18:57;;;;;;;12.75;1.25;;;6.90;99.90;;;;;;5014032;28;20049;-74
2022/04/05 01:21:22;;;;;;;10.35;1.33;;;6.90;99.90;;;;;;5013996;28;20053;-74
2022/04/05 01:24:11;;;;;;;9.55;1.05;;;7.00;99.90;;;;;;5013646;28;20133;-74
2022/04/05 01:26:45;;;;;;;15.02;1.77;;;6.80;99.90;;;;;;5014604;28;20064;-74
2022/04/05 01:29:12;;;;;;;14.05;1.83;;;6.80;99.90;;;;;;5013910;28;20053;-75
2022/04/05 01:31:46;;;;;;;11.30;1.30;;;7.30;99.90;;;;;;5014318;28;20096;-74
2022/04/05 01:34:13;;;;;;;11.77;1.50;;;6.80;99.90;;;;;;5017032;28;20053;-74
2022/04/05 01:36:41;;;;;;;13.88;1.27;;;6.80;99.90;;;;;;5018180;28;20057;-74
2022/04/05 01:39:07;;;;;;;10.75;1.20;;;6.80;99.90;;;;;;5017862;28;20064;-74
2022/04/05 01:41:33;;;;;;;10.20;1.33;;;6.80;99.90;;;;;;5016599;28;20038;-74
2022/04/05 01:43:58;;;;;;;10.82;1.40;;;6.80;99.90;;;;;;5018582;28;20058;-74
2022/04/05 01:46:24;;;;;;;9.20;1.38;;;6.80;99.90;;;;;;5017766;28;20115;-75
2022/04/05 01:48:51;;;;;;;10.07;1.52;;;6.80;99.90;;;;;;5017745;28;20045;-73
2022/04/05 01:51:16;;;;;;;7.53;1.00;;;6.80;99.90;;;;;;5018206;28;20046;-74
2022/04/05 01:53:42;;;;;;;7.65;1.38;;;6.70;99.90;;;;;;5017898;28;20057;-73
2022/04/05 01:56:08;;;;;;;11.55;1.08;;;6.90;99.90;;;;;;5018077;28;20378;-75
2022/04/05 01:58:36;;;;;;;10.55;1.00;;;6.80;99.90;;;;;;5017750;28;20146;-74
2022/04/05 02:01:02;;;;;;;8.27;1.02;;;6.70;99.90;;;;;;5017284;28;20042;-73
2022/04/05 02:03:29;;;;;;;7.38;1.05;;;6.70;99.90;;;;;;5016050;28;20521;-74
2022/04/05 02:05:54;;;;;;;9.85;1.08;;;6.70;99.90;;;;;;5017499;28;20061;-74
2022/04/05 02:08:20;;;;;;;7.50;0.93;;;6.70;99.90;;;;;;5016161;28;20478;-74
2022/04/05 02:10:46;;;;;;;8.63;1.00;;;6.70;99.90;;;;;;5017062;28;20061;-75
2022/04/05 02:13:12;;;;;;;15.32;1.52;;;6.70;99.90;;;;;;5017278;28;20046;-73
2022/04/05 02:15:37;;;;;;;8.60;0.85;;;6.60;99.90;;;;;;5016220;28;20049;-74
2022/04/05 02:18:03;;;;;;;9.73;0.90;;;6.70;99.90;;;;;;5017238;28;20050;-74
2022/04/05 02:20:29;;;;;;;7.40;1.13;;;6.60;99.90;;;;;;5017593;28;20046;-74
2022/04/05 02:22:55;;;;;;;6.97;1.08;;;6.60;99.90;;;;;;5017099;28;20088;-74
2022/04/05 02:25:21;;;;;;;9.00;0.90;;;6.60;99.90;;;;;;4999819;28;20056;-73
2022/04/05 02:27:47;;;;;;;7.20;1.23;;;6.60;99.90;;;;;;5017039;28;20041;-74
2022/04/05 02:30:13;;;;;;;9.70;1.00;;;6.50;99.90;;;;;;5015802;28;20057;-74
2022/04/05 02:32:39;;;;;;;10.13;1.48;;;6.50;99.90;;;;;;5016957;28;20089;-74
2022/04/05 02:35:05;;;;;;;10.70;0.90;;;6.50;99.90;;;;;;5016861;28;20046;-74
2022/04/05 02:37:31;;;;;;;4.45;0.70;;;6.40;99.90;;;;;;5016229;28;20045;-74
2022/04/05 02:39:57;;;;;;;8.63;0.95;;;6.40;99.90;;;;;;5015719;28;20104;-74
2022/04/05 02:42:22;;;;;;;5.55;0.77;;;6.40;99.90;;;;;;5016369;28;20095;-75
2022/04/05 02:44:48;;;;;;;12.18;1.10;;;6.40;99.90;;;;;;5016699;28;20050;-74
2022/04/05 02:47:15;;;;;;;12.77;0.70;;;6.40;99.90;;;;;;5015967;28;20057;-74
2022/04/05 02:49:41;;;;;;;8.07;1.30;;;6.30;99.90;;;;;;5015876;28;20054;-74
2022/04/05 02:52:07;;;;;;;7.05;0.82;;;6.50;99.90;;;;;;5017365;28;20124;-74
2022/04/05 02:54:33;;;;;;;5.85;0.80;;;6.30;99.90;;;;;;5016500;28;20129;-74
2022/04/05 02:56:58;;;;;;;6.72;0.93;;;6.70;99.90;;;;;;5015467;28;20054;-74
2022/04/05 02:59:24;;;;;;;4.15;0.77;;;6.40;99.90;;;;;;5016907;28;20115;-74
2022/04/05 03:01:50;;;;;;;6.82;0.80;;;6.70;99.90;;;;;;5016237;28;20081;-74
2022/04/05 03:04:18;;;;;;;8.75;1.35;;;6.30;99.90;;;;;;5014868;28;20054;-74
2022/04/05 03:06:44;;;;;;;7.22;1.15;;;6.30;99.90;;;;;;5016277;28;20518;-74
2022/04/05 03:09:10;;;;;;;8.05;1.48;;;6.30;99.90;;;;;;5015628;28;20125;-74
2022/04/05 03:11:36;;;;;;;9.23;0.90;;;6.30;99.90;;;;;;4999765;28;20129;-74
2022/04/05 03:14:01;;;;;;;9.80;1.73;;;6.40;99.90;;;;;;5016687;28;20042;-74
2022/04/05 03:16:27;;;;;;;8.45;0.90;;;6.30;99.90;;;;;;5016948;28;20466;-74
2022/04/05 03:18:53;;;;;;;13.25;0.75;;;6.30;99.90;;;;;;5016368;28;20076;-74
2022/04/05 03:21:19;;;;;;;9.43;1.13;;;6.20;99.90;;;;;;5015972;28;20042;-76
2022/04/05 03:23:44;;;;;;;7.25;0.85;;;6.40;99.90;;;;;;5014770;28;20056;-74
2022/04/05 03:26:11;;;;;;;11.20;1.63;;;6.20;99.90;;;;;;5015910;28;20085;-74
2022/04/05 03:28:36;;;;;;;5.40;0.77;;;6.50;99.90;;;;;;5016770;28;20046;-74
2022/04/05 03:31:02;;;;;;;6.38;0.80;;;6.20;99.90;;;;;;5015855;28;20487;-74
2022/04/05 03:33:29;;;;;;;12.50;1.02;;;6.60;99.90;;;;;;5014793;28;20042;-74
2022/04/05 03:35:56;;;;;;;6.57;0.75;;;6.30;99.90;;;;;;5015792;28;20088;-75
2022/04/05 03:38:22;;;;;;;5.75;1.00;;;6.20;99.90;;;;;;4998630;28;20045;-75
2022/04/05 03:40:47;;;;;;;9.57;1.10;;;6.20;99.90;;;;;;5014733;28;20099;-76
2022/04/05 03:43:13;;;;;;;7.35;1.00;;;6.20;99.90;;;;;;5015158;28;20132;-74
2022/04/05 03:45:39;;;;;;;6.75;0.90;;;6.20;99.90;;;;;;4998349;28;20069;-74
2022/04/05 03:48:06;;;;;;;4.93;0.80;;;6.20;99.90;;;;;;5015335;28;20068;-74
2022/04/05 03:50:32;;;;;;;12.00;1.20;;;6.20;99.90;;;;;;5016057;28;20165;-74
2022/04/05 03:52:59;;;;;;;6.50;1.10;;;6.20;99.90;;;;;;5016247;28;20073;-74
2022/04/05 03:55:27;;;;;;;12.43;1.75;;;6.50;99.90;;;;;;5015045;28;20046;-74
2022/04/05 03:57:54;;;;;;;9.45;1.05;;;5.90;99.90;;;;;;5013964;28;20049;-74
2022/04/05 04:00:19;;;;;;;8.68;1.38;;;6.90;99.90;;;;;;5015152;28;20085;-75
2022/04/05 04:02:45;;;;;;;9.88;1.27;;;6.10;99.90;;;;;;5014263;28;20111;-74
2022/04/05 04:05:16;;;;;;;9.85;1.33;;;6.20;99.90;;;;;;5016116;28;20081;-74
2022/04/05 04:07:42;;;;;;;8.63;0.77;;;6.10;99.90;;;;;;5014866;28;20390;-74
2022/04/05 04:10:08;;;;;;;11.60;1.27;;;6.20;99.90;;;;;;5015664;28;20041;-74
2022/04/05 04:12:34;;;;;;;10.75;1.13;;;6.10;99.90;;;;;;5015011;28;20100;-74
2022/04/05 04:15:00;;;;;;;10.80;1.35;;;6.20;99.90;;;;;;5014088;28;20054;-74
2022/04/05 04:17:26;;;;;;;12.27;1.52;;;6.20;99.90;;;;;;5015021;28;20085;-75
2022/04/05 04:19:52;;;;;;;13.18;1.23;;;6.20;99.90;;;;;;4997540;28;20095;-74
2022/04/05 04:22:18;;;;;;;7.80;1.25;;;6.20;99.90;;;;;;5013743;28;20045;-74
2022/04/05 04:24:44;;;;;;;7.53;1.35;;;6.20;99.90;;;;;;5014649;28;20125;-74
2022/04/05 04:27:11;;;;;;;8.32;0.73;;;6.20;99.90;;;;;;5015074;28;20054;-74
2022/04/05 04:29:37;;;;;;;10.25;0.90;;;6.20;99.90;;;;;;5013794;28;20187;-74
2022/04/05 04:32:04;;;;;;;8.07;1.10;;;6.20;99.90;;;;;;5014646;28;20504;-74
2022/04/05 04:34:29;;;;;;;9.50;1.05;;;6.20;99.90;;;;;;5015180;28;20124;-74
2022/04/05 04:36:56;;;;;;;10.40;1.38;;;6.10;99.90;;;;;;5013365;28;20077;-74
2022/04/05 04:39:22;;;;;;;11.73;1.00;;;6.70;99.90;;;;;;5014648;28;20041;-74
2022/04/05 04:41:48;;;;;;;6.80;0.90;;;6.20;99.90;;;;;;5013845;28;20045;-74
2022/04/05 04:44:13;;;;;;;5.45;0.80;;;6.10;99.90;;;;;;5013489;28;20049;-74
2022/04/05 04:46:39;;;;;;;6.35;0.85;;;6.20;99.90;;;;;;5014085;28;20054;-74
2022/04/05 04:49:05;;;;;;;9.40;1.30;;;6.20;99.90;;;;;;5014692;28;20050;-74
2022/04/05 04:51:31;;;;;;;10.40;1.00;;;6.20;99.90;;;;;;5013392;28;20097;-74
2022/04/05 04:53:57;;;;;;;11.23;1.00;;;6.20;99.90;;;;;;5014215;28;20082;-74
2022/04/05 04:56:23;;;;;;;7.82;1.10;;;6.30;99.90;;;;;;5013400;28;20050;-74
2022/04/05 04:58:49;;;;;;;6.20;0.70;;;6.20;99.90;;;;;;5013380;28;20234;-74
2022/04/05 05:01:14;;;;;;;9.25;0.85;;;6.20;99.90;;;;;;5013723;28;20080;-74
2022/04/05 05:03:40;;;;;;;12.23;0.93;;;6.20;99.90;;;;;;5012956;28;20054;-74
2022/04/05 05:06:06;;;;;;;4.90;0.82;;;6.20;99.90;;;;;;5012302;28;20049;-74
2022/04/05 05:08:33;;;;;;;8.85;1.00;;;6.20;99.90;;;;;;5014532;28;20068;-74
2022/04/05 05:10:59;;;;;;;10.05;1.08;;;6.30;99.90;;;;;;5015156;28;20529;-74
2022/04/05 05:13:25;;;;;;;7.05;1.30;;;6.20;99.90;;;;;;5014118;28;20080;-74
2022/04/05 05:15:51;;;;;;;12.18;1.42;;;6.50;99.90;;;;;;5012974;28;20121;-74
2022/04/05 05:18:17;;;;;;;8.23;1.10;;;6.20;99.90;;;;;;4996819;28;20145;-74
2022/04/05 05:20:43;;;;;;;7.15;1.08;;;6.20;99.90;;;;;;5014012;28;20053;-74
2022/04/05 05:23:09;;;;;;;11.02;1.33;;;6.50;99.90;;;;;;5013653;28;20497;-74
2022/04/05 05:25:34;;;;;;;9.35;0.90;;;6.20;99.90;;;;;;5012770;28;20089;-74
2022/04/05 05:28:01;;;;;;;7.65;1.17;;;6.30;99.90;;;;;;4996525;28;20390;-73
2022/04/05 05:30:27;;;;;;;7.30;0.80;;;6.30;99.90;;;;;;5012854;28;20057;-74
2022/04/05 05:32:53;;;;;;;6.10;1.00;;;6.30;99.90;;;;;;4996810;28;20049;-74
2022/04/05 05:35:20;;;;;;;7.88;1.00;;;6.30;99.90;;;;;;5014437;28;20192;-73
2022/04/05 05:37:46;;;;;;;6.88;0.82;;;6.30;99.90;;;;;;5013824;28;20050;-73
2022/04/05 05:40:13;;;;;;;5.57;0.73;;;6.50;99.90;;;;;;5012770;28;20054;-73
2022/04/05 05:43:01;;;;;;;9.77;1.23;;;6.30;99.90;;;;;;5014131;28;20089;-73
2022/04/05 05:45:28;;;;;;;8.50;0.95;;;6.40;99.90;;;;;;5013922;28;20053;-74
2022/04/05 05:47:53;;;;;;;10.35;1.38;;;6.30;99.90;;;;;;5013847;28;20482;-74
2022/04/05 05:50:20;;;;;;;6.55;1.05;;;6.30;99.90;;;;;;5012558;28;20059;-74
2022/04/05 05:52:46;;;;;;;4.40;0.70;;;6.40;99.90;;;;;;5013753;28;20050;-74
2022/04/05 05:55:14;;;;;;;4.22;0.80;;;6.40;99.90;;;;;;5013671;28;20135;-74
2022/04/05 05:57:40;;;;;;;8.15;1.30;;;6.40;99.90;;;;;;5013934;28;20045;-74
2022/04/05 06:00:09;;;;;;;10.98;0.80;;;6.40;99.90;;;;;;4996684;28;20050;-74
2022/04/05 06:02:39;;;;;;;6.07;0.95;;;6.40;99.90;;;;;;5012396;28;20136;-74
2022/04/05 06:05:05;;;;;;;10.38;1.05;;;6.50;99.90;;;;;;5012506;28;20062;-74
2022/04/05 06:07:32;;;;;;;6.43;0.93;;;6.50;99.90;;;;;;5013491;28;20129;-74
2022/04/05 06:09:58;;;;;;;8.95;1.55;;;6.50;99.90;;;;;;5012872;28;20049;-74
2022/04/05 06:12:23;;;;;;;6.60;1.08;;;6.50;99.90;;;;;;5012976;28;20046;-74
2022/04/05 06:14:49;;;;;;;9.40;1.30;;;6.80;99.90;;;;;;5013246;28;20056;-74
2022/04/05 06:17:15;;;;;;;8.45;0.95;;;6.60;99.90;;;;;;5013476;28;20041;-74
2022/04/05 06:19:40;;;;;;;10.07;1.50;;;6.60;99.90;;;;;;5015457;28;20129;-75
2022/04/05 06:22:06;;;;;;;7.35;1.40;;;6.60;99.90;;;;;;5017003;28;20054;-75
2022/04/05 06:24:32;;;;;;;7.25;0.90;;;6.70;99.90;;;;;;5015980;28;20136;-75
2022/04/05 06:26:57;;;;;;;8.95;1.13;;;6.70;99.90;;;;;;5017055;28;20046;-74
2022/04/05 06:29:23;;;;;;;10.10;1.20;;;6.80;99.90;;;;;;5016329;28;20046;-75
2022/04/05 06:31:49;;;;;;;7.82;0.82;;;6.90;99.90;;;;;;5016330;28;20133;-75
2022/04/05 06:34:14;;;;;;;11.20;1.20;;;6.90;99.90;;;;;;5016926;28;20441;-75
2022/04/05 06:36:40;;;;;;;5.82;1.00;;;6.90;99.90;;;;;;5016860;28;20053;-75
2022/04/05 06:39:06;;;;;;;6.68;1.50;;;6.90;99.90;;;;;;4999393;28;20057;-75
2022/04/05 06:41:32;;;;;;;8.40;1.17;;;7.10;99.90;;;;;;5016751;28;20096;-75
2022/04/05 06:43:58;;;;;;;8.48;1.23;;;6.90;99.90;;;;;;4983408;28;20057;-74
2022/04/05 06:46:24;;;;;;;6.43;1.02;;;6.90;99.90;;;;;;5015899;28;20042;-74
2022/04/05 06:48:49;;;;;;;9.45;1.30;;;7.00;99.90;;;;;;5020588;28;20060;-75
2022/04/05 06:51:15;;;;;;;8.45;1.10;;;7.00;99.90;;;;;;5021085;28;20052;-74
2022/04/05 06:53:42;;;;;;;9.18;1.13;;;7.00;99.90;;;;;;5018965;28;20204;-75
2022/04/05 06:56:09;;;;;;;8.95;1.20;;;7.00;99.90;;;;;;5001737;28;20050;-74
2022/04/05 06:58:34;;;;;;;8.82;1.23;;;7.10;99.90;;;;;;5017617;28;20049;-75
2022/04/05 07:01:00;;;;;;;7.75;0.93;;;7.10;99.90;;;;;;5016748;28;20096;-75
2022/04/05 07:03:26;;;;;;;6.85;1.02;;;7.10;99.90;;;;;;5015134;28;20049;-75
2022/04/05 07:05:52;;;;;;;7.85;1.60;;;7.10;99.90;;;;;;4999228;28;20054;-75
2022/04/05 07:08:17;;;;;;;9.00;1.50;;;7.40;99.90;;;;;;5014940;28;20060;-74
2022/04/05 07:10:43;;;;;;;8.65;1.45;;;7.20;99.90;;;;;;5016048;28;20133;-74
2022/04/05 07:13:09;;;;;;;6.28;1.20;;;7.20;99.90;;;;;;5016645;28;20053;-75
2022/04/05 07:15:35;;;;;;;11.02;2.13;;;7.20;99.90;;;;;;5015948;28;20046;-75
2022/04/05 07:18:00;;;;;;;8.80;0.93;;;7.30;99.90;;;;;;5016188;28;20046;-75
2022/04/05 07:20:26;;;;;;;11.02;1.30;;;7.20;99.90;;;;;;5014748;28;20471;-75
2022/04/05 07:22:52;;;;;;;8.02;0.93;;;7.50;99.90;;;;;;4999398;28;20049;-74
2022/04/05 07:25:22;;;;;;;10.13;1.20;;;7.40;99.90;;;;;;5015620;28;20406;-75
2022/04/05 07:27:49;;;;;;;6.22;1.13;;;7.30;99.90;;;;;;5015002;28;20092;-74
2022/04/05 07:30:15;;;;;;;12.38;1.48;;;7.30;99.90;;;;;;5014995;28;20046;-75
2022/04/05 07:32:43;;;;;;;9.95;1.40;;;7.40;99.90;;;;;;5015466;28;20409;-75
2022/04/05 07:35:09;;;;;;;8.50;1.15;;;7.40;99.90;;;;;;5015804;28;20056;-72
2022/04/05 07:37:36;;;;;;;10.55;2.40;;;7.40;99.90;;;;;;5014765;28;20096;-73
2022/04/05 07:40:05;;;;;;;9.35;1.10;;;7.40;99.90;;;;;;5015633;28;20053;-74
2022/04/05 07:42:31;;;;;;;9.95;1.17;;;7.50;99.90;;;;;;5015887;28;20501;-73
2022/04/05 07:44:57;;;;;;;6.53;0.90;;;7.50;99.90;;;;;;5014942;28;20133;-74
2022/04/05 07:47:23;;;;;;;9.00;1.00;;;7.50;99.90;;;;;;5015466;28;20153;-74
2022/04/05 07:49:49;;;;;;;8.82;1.77;;;7.50;99.90;;;;;;5016280;28;20133;-73
2022/04/05 07:52:15;;;;;;;12.52;1.77;;;7.50;99.90;;;;;;5015491;28;20436;-74
2022/04/05 07:54:43;;;;;;;6.28;0.90;;;7.50;99.90;;;;;;5015955;28;20092;-74
2022/04/05 07:57:13;;;;;;;6.82;0.93;;;7.50;99.90;;;;;;5014157;28;20058;-75
2022/04/05 07:59:40;;;;;;;10.25;1.30;;;7.60;99.90;;;;;;5015287;28;20064;-79
2022/04/05 08:02:06;;;;;;;5.63;1.00;;;7.60;99.90;;;;;;5015197;28;20545;-75
2022/04/05 08:04:31;;;;;;;8.25;1.13;;;7.60;99.90;;;;;;5015075;28;20445;-75
2022/04/05 08:06:57;;;;;;;5.43;0.88;;;7.60;99.90;;;;;;5015240;28;20108;-82
2022/04/05 08:09:23;;;;;;;5.97;0.80;;;7.90;99.90;;;;;;5014182;28;20060;-79
2022/04/05 08:11:49;;;;;;;4.70;1.00;;;7.60;99.90;;;;;;5015057;28;20409;-79
2022/04/05 08:14:15;;;;;;;11.23;1.20;;;7.60;99.90;;;;;;5015036;28;20046;-77
2022/04/05 08:16:41;;;;;;;7.45;0.95;;;7.50;99.90;;;;;;5014987;28;20076;-80
2022/04/05 08:19:09;;;;;;;10.15;1.30;;;7.60;99.90;;;;;;5014092;28;20042;-77
2022/04/05 08:21:34;;;;;;;8.10;3.08;;;7.50;99.90;;;;;;5014978;28;20182;-77
2022/04/05 08:24:00;;;;;;;7.03;1.52;;;7.50;99.90;;;;;;5014866;28;20133;-76
2022/04/05 08:26:26;;;;;;;7.43;1.00;;;7.50;99.90;;;;;;5013694;28;20042;-80
2022/04/05 08:28:56;;;;;;;8.80;1.52;;;7.50;99.90;;;;;;4997529;28;20129;-76
2022/04/05 08:31:25;;;;;;;5.50;1.20;;;7.50;99.90;;;;;;4997344;28;20061;-80
2022/04/05 08:33:52;;;;;;;7.93;0.90;;;7.50;99.90;;;;;;5013741;28;20046;-78
2022/04/05 08:36:17;;;;;;;6.20;0.90;;;7.50;99.90;;;;;;5013675;28;20058;-78
2022/04/05 08:38:43;;;;;;;9.38;2.20;;;7.90;99.90;;;;;;5013976;28;20057;-74
2022/04/05 08:41:12;;;;;;;6.45;1.00;;;7.50;99.90;;;;;;5014513;28;20108;-74
2022/04/05 08:43:42;;;;;;;7.00;0.90;;;7.50;99.90;;;;;;5013769;28;20394;-74
2022/04/05 08:46:10;;;;;;;5.30;0.90;;;7.50;99.90;;;;;;5014387;28;20104;-74
2022/04/05 08:48:37;;;;;;;6.22;0.95;;;7.50;99.90;;;;;;5012796;28;20058;-74
2022/04/05 08:51:04;;;;;;;5.57;0.93;;;7.50;99.90;;;;;;5012375;28;20068;-73
2022/04/05 08:53:32;;;;;;;5.75;1.20;;;7.50;99.90;;;;;;5014239;28;20065;-74
2022/04/05 08:55:58;;;;;;;5.25;1.02;;;7.60;99.90;;;;;;5014054;28;20096;-74
2022/04/05 08:58:24;;;;;;;7.05;1.17;;;7.60;99.90;;;;;;5014388;28;20091;-73
2022/04/05 09:00:53;;;;;;;6.47;1.55;;;8.00;99.90;;;;;;5014047;28;20498;-74
2022/04/05 09:03:19;;;;;;;5.68;2.00;;;7.70;99.90;;;;;;5013782;28;20053;-74
2022/04/05 09:05:45;;;;;;;4.45;1.00;;;7.80;99.90;;;;;;5014214;28;20370;-75
2022/04/05 09:08:19;;;;;;;4.75;1.02;;;7.80;99.90;;;;;;4995995;28;20120;-75
2022/04/05 09:11:09;;;;;;;4.10;1.00;;;7.90;99.90;;;;;;5013879;28;20046;-74
2022/04/05 09:13:35;;;;;;;6.30;1.00;;;7.90;99.90;;;;;;5012216;28;20087;-74
2022/04/05 09:16:05;;;;;;;4.57;1.23;;;8.00;99.90;;;;;;5011711;28;20041;-73
2022/04/05 09:18:34;;;;;;;4.82;1.10;;;8.00;99.90;;;;;;5013118;28;20057;-74
2022/04/05 09:21:00;;;;;;;3.25;0.90;;;8.10;99.90;;;;;;5012220;28;20454;-74
2022/04/05 09:23:33;;;;;;;5.13;0.95;;;8.10;99.90;;;;;;4995295;28;20049;-74
2022/04/05 09:26:11;;;;;;;4.70;0.95;;;8.20;99.90;;;;;;5012973;28;20681;-74
2022/04/05 09:28:38;;;;;;;4.63;1.00;;;8.20;99.90;;;;;;5011913;28;20525;-74
2022/04/05 09:31:07;;;;;;;3.10;1.00;;;8.20;99.90;;;;;;5012923;28;20049;-79
2022/04/05 09:33:35;;;;;;;8.23;1.90;;;8.20;99.90;;;;;;5013315;28;20078;-77
2022/04/05 09:36:10;;;;;;;3.15;1.05;;;8.20;99.90;;;;;;5013036;28;20050;-78
2022/04/05 09:38:37;;;;;;;7.30;1.27;;;8.20;99.90;;;;;;5011753;28;20597;-78
2022/04/05 09:41:29;;;;;;;3.95;0.93;;;8.20;99.90;;;;;;5012444;28;20041;-74
2022/04/05 09:43:59;;;;;;;3.90;1.00;;;8.20;99.90;;;;;;4994779;28;20070;-75
2022/04/05 09:46:25;;;;;;;4.07;1.02;;;8.20;99.90;;;;;;4995602;28;20060;-74
2022/04/05 09:49:14;;;;;;;9.10;2.22;;;8.10;99.90;;;;;;5011318;28;20452;-74
2022/04/05 09:51:45;;;;;;;6.40;1.65;;;8.10;99.90;;;;;;5013300;28;20505;-74
2022/04/05 09:54:28;;;;;;;7.68;1.35;;;8.10;99.90;;;;;;5015975;28;20049;-75
2022/04/05 09:57:03;;;;;;;5.38;1.38;;;8.10;99.90;;;;;;5017751;28;20073;-74
2022/04/05 09:59:41;;;;;;;4.10;1.42;;;8.10;99.90;;;;;;4999709;28;20050;-75
2022/04/05 10:02:12;;;;;;;5.22;1.63;;;8.20;99.90;;;;;;5017536;28;20166;-74
2022/04/05 10:05:01;;;;;;;7.22;1.60;;;8.20;99.90;;;;;;5015551;28;20124;-74
2022/04/05 10:07:29;;;;;;;5.13;1.55;;;8.20;99.90;;;;;;5015719;28;20050;-74
2022/04/05 10:09:57;;;;;;;5.15;1.40;;;8.20;99.90;;;;;;5017258;28;20042;-74
2022/04/05 10:12:24;;;;;;;7.47;1.77;;;8.20;99.90;;;;;;5015541;28;20466;-75
2022/04/05 10:14:49;;;;;;;7.35;1.42;;;8.20;99.90;;;;;;5015562;28;20057;-76
2022/04/05 10:17:17;;;;;;;5.72;1.40;;;8.30;99.90;;;;;;4999341;28;20045;-75
2022/04/05 10:19:48;;;;;;;11.95;6.45;;;8.20;99.90;;;;;;5016352;28;20057;-74
2022/04/05 10:22:16;;;;;;;6.20;1.30;;;8.20;99.90;;;;;;5015496;28;20096;-74
2022/04/05 10:24:43;;;;;;;4.45;2.08;;;7.30;99.90;;;;;;5016288;28;20070;-74
2022/04/05 10:27:10;;;;;;;6.70;2.08;;;8.20;99.90;;;;;;5016080;28;20101;-73
2022/04/05 10:29:36;;;;;;;3.88;1.50;;;8.20;99.90;;;;;;5016329;28;20089;-73
2022/04/05 10:32:23;;;;;;;4.47;1.40;;;8.20;99.90;;;;;;5016827;28;20092;-72
2022/04/05 10:35:10;;;;;;;5.43;1.15;;;8.20;99.90;;;;;;5015744;28;20057;-72
2022/04/05 10:37:38;;;;;;;5.55;1.70;;;8.20;99.90;;;;;;5016377;28;20054;-71
2022/04/05 10:40:13;;;;;;;5.30;1.50;;;8.20;99.90;;;;;;5016577;28;20042;-72
2022/04/05 10:42:47;;;;;;;3.17;1.40;;;8.30;99.90;;;;;;5015127;28;20134;-72
2022/04/05 10:45:22;;;;;;;5.53;1.60;;;8.30;99.90;;;;;;5017023;28;20053;-73
2022/04/05 10:48:00;;;;;;;3.97;1.00;;;8.30;99.90;;;;;;5016730;28;20089;-72
2022/04/05 10:50:27;;;;;;;2.45;1.10;;;8.30;99.90;;;;;;5015754;28;20156;-72
2022/04/05 10:53:20;;;;;;;5.28;1.00;;;8.30;99.90;;;;;;5015757;28;20045;-72
2022/04/05 10:56:04;;;;;;;2.80;1.08;;;8.30;99.90;;;;;;4998851;28;20418;-72
2022/04/05 10:58:41;;;;;;;3.05;0.90;;;8.40;99.90;;;;;;4998137;28;20089;-72
2022/04/05 11:01:23;;;;;;;2.70;0.90;;;8.40;99.90;;;;;;5015681;28;20049;-72
2022/04/05 11:04:15;;;;;;;2.65;1.00;;;8.50;99.90;;;;;;5015348;28;20439;-73
2022/04/05 11:06:58;;;;;;;3.15;0.70;;;8.60;99.90;;;;;;5015974;28;20057;-70
2022/04/05 11:09:28;;;;;;;2.03;0.70;;;8.60;99.90;;;;;;5015642;28;20050;-77
2022/04/05 11:11:55;;;;;;;0.90;0.60;;;8.60;99.90;;;;;;5015972;28;20089;-76
2022/04/05 11:14:41;;;;;;;2.38;0.80;;;8.60;99.90;;;;;;5016156;28;20125;-77
2022/04/05 11:17:08;;;;;;;1.77;0.73;;;8.60;99.90;;;;;;5015473;28;20513;-76
2022/04/05 11:19:39;;;;;;;2.08;0.60;;;8.60;99.90;;;;;;5015931;28;20089;-76
2022/04/05 11:22:20;;;;;;;2.03;0.70;;;8.60;99.90;;;;;;5015223;28;20050;-75
2022/04/05 11:25:00;;;;;;;1.60;0.68;;;8.60;99.90;;;;;;5014393;28;20100;-78
2022/04/05 11:27:47;;;;;;;3.22;0.80;;;8.60;99.90;;;;;;5016521;28;20050;-80
2022/04/05 11:30:27;;;;;;;3.00;0.73;;;8.70;99.90;;;;;;5015719;28;20050;-78
2022/04/05 11:33:26;;;;;;;1.55;1.30;;;8.70;99.90;;;;;;5016407;28;20050;-79
2022/04/05 11:36:10;;;;;;;4.43;1.00;;;8.60;99.90;;;;;;5015464;28;20057;-80
2022/04/05 11:38:40;;;;;;;0.80;0.70;;;8.70;99.90;;;;;;5016631;28;20068;-80
2022/04/05 11:41:18;;;;;;;1.08;0.60;;;8.60;99.90;;;;;;5014961;28;20045;-77
2022/04/05 11:43:46;;;;;;;1.40;0.70;;;8.70;99.90;;;;;;4998359;28;20438;-77
2022/04/05 11:46:21;;;;;;;0.77;0.60;;;8.60;99.90;;;;;;5014645;28;20046;-74
2022/04/05 11:48:52;;;;;;;0.90;0.70;;;8.70;99.90;;;;;;5015791;28;20046;-82
2022/04/05 11:51:21;;;;;;;2.42;0.80;;;8.70;99.90;;;;;;5016213;28;20038;-76
2022/04/05 11:53:47;;;;;;;1.88;0.70;;;8.70;99.90;;;;;;5013912;28;20077;-76
2022/04/05 11:56:13;;;;;;;1.75;1.02;;;8.80;99.90;;;;;;5015118;28;20044;-75
2022/04/05 11:58:53;;;;;;;1.10;0.90;;;8.70;99.90;;;;;;5014913;28;20049;-75
2022/04/05 12:01:23;;;;;;;1.83;0.77;;;8.80;99.90;;;;;;4997597;28;20133;-75
2022/04/05 12:04:00;;;;;;;3.75;0.95;;;8.80;99.90;;;;;;4997344;28;20536;-76
2022/04/05 12:06:32;;;;;;;1.00;0.77;;;8.80;99.90;;;;;;5014794;28;20057;-75
2022/04/05 12:09:07;;;;;;;2.17;0.80;;;8.90;99.90;;;;;;5014321;28;20482;-76
2022/04/05 12:11:35;;;;;;;0.90;0.75;;;8.90;99.90;;;;;;5015420;28;20422;-76
2022/04/05 12:14:05;;;;;;;1.42;0.80;;;9.00;99.90;;;;;;5014136;28;20104;-76
2022/04/05 12:16:43;;;;;;;2.08;0.90;;;9.00;99.90;;;;;;5013688;28;20466;-76
2022/04/05 12:19:09;;;;;;;1.38;1.00;;;9.00;99.90;;;;;;5013782;28;20136;-76
2022/04/05 12:21:36;;;;;;;1.73;0.70;;;9.00;99.90;;;;;;4997931;28;20137;-76
2022/04/05 12:24:01;;;;;;;1.45;0.70;;;9.00;99.90;;;;;;4997384;28;20050;-76
2022/04/05 12:26:31;;;;;;;0.88;0.60;;;9.00;99.90;;;;;;5014432;28;20053;-76
2022/04/05 12:28:59;;;;;;;1.67;1.00;;;9.00;99.90;;;;;;4996970;28;20084;-76
2022/04/05 12:31:30;;;;;;;1.90;0.80;;;9.00;99.90;;;;;;5014443;28;20034;-76
2022/04/05 12:34:13;;;;;;;1.13;0.80;;;9.00;99.90;;;;;;5013304;28;20397;-76
2022/04/05 12:36:58;;;;;;;1.67;0.70;;;9.00;99.90;;;;;;5013488;28;20533;-76
2022/04/05 12:39:30;;;;;;;1.23;0.80;;;9.10;99.90;;;;;;5013438;28;20053;-76
2022/04/05 12:42:08;;;;;;;1.25;0.98;;;9.20;99.90;;;;;;5014040;28;20049;-75
2022/04/05 12:44:46;;;;;;;2.25;0.90;;;9.30;99.90;;;;;;5014481;28;20045;-76
2022/04/05 12:47:15;;;;;;;2.50;1.00;;;9.30;99.90;;;;;;5014393;28;20049;-77
2022/04/05 12:49:44;;;;;;;1.67;0.90;;;9.40;99.90;;;;;;5013455;28;20096;-76
2022/04/05 12:52:14;;;;;;;1.55;0.90;;;9.40;99.90;;;;;;5013616;28;20042;-76
2022/04/05 12:54:52;;;;;;;1.33;0.90;;;9.40;99.90;;;;;;4997939;28;20058;-77
2022/04/05 12:57:32;;;;;;;1.08;0.85;;;9.40;99.90;;;;;;5014228;28;20085;-77
2022/04/05 13:00:22;;;;;;;1.65;0.93;;;9.50;99.90;;;;;;4996744;28;20145;-77
2022/04/05 13:02:49;;;;;;;1.38;1.00;;;9.50;99.90;;;;;;5014046;28;20500;-77
2022/04/05 13:08:10;;;;;;;2.53;1.10;;;9.50;99.90;;;;;;5013240;28;20058;-77